createdAt,value
2022-12-25T15:02:44.330Z,13.00
2022-12-25T15:05:31.442Z,12.90
2022-12-25T15:08:21.690Z,13.00
2022-12-25T15:11:02.731Z,13.10
2022-12-25T15:13:32.305Z,13.10
2022-12-25T15:16:04.580Z,13.20
2022-12-25T15:18:39.184Z,13.20
2022-12-25T15:21:07.963Z,13.20
2022-12-25T15:23:35.917Z,13.20
2022-12-25T15:26:04.283Z,13.20
2022-12-25T15:28:32.254Z,13.20
2022-12-25T15:31:00.274Z,13.10
2022-12-25T15:33:28.175Z,13.20
2022-12-25T15:35:57.416Z,13.10
2022-12-25T15:38:25.387Z,13.00
2022-12-25T15:40:53.370Z,12.90
2022-12-25T15:43:39.976Z,12.90
2022-12-25T15:46:10.346Z,12.80
2022-12-25T15:48:38.404Z,12.80
2022-12-25T15:51:07.802Z,12.90
2022-12-25T15:53:35.807Z,12.80
2022-12-25T15:56:03.718Z,12.70
2022-12-25T15:58:31.634Z,12.60
2022-12-25T16:00:59.542Z,12.40
2022-12-25T16:03:27.556Z,12.40
2022-12-25T16:05:55.829Z,12.40
2022-12-25T16:08:25.397Z,12.40
2022-12-25T16:10:53.904Z,12.50
2022-12-25T16:13:22.993Z,12.30
2022-12-25T16:15:50.989Z,12.30
2022-12-25T16:18:19.175Z,12.40
2022-12-25T16:20:47.257Z,12.50
2022-12-25T16:23:15.180Z,12.50
2022-12-25T16:25:44.507Z,12.50
2022-12-25T16:28:14.678Z,12.50
2022-12-25T16:30:43.323Z,12.50
2022-12-25T16:33:14.812Z,12.40
2022-12-25T16:35:42.739Z,12.30
2022-12-25T16:38:11.635Z,12.40
2022-12-25T16:40:39.543Z,12.50
2022-12-25T16:43:09.927Z,12.50
2022-12-25T16:45:40.378Z,12.40
2022-12-25T16:48:08.968Z,12.40
2022-12-25T16:50:39.348Z,12.40
2022-12-25T16:53:07.561Z,12.30
2022-12-25T16:55:38.605Z,12.30
2022-12-25T16:58:08.343Z,12.30
2022-12-25T17:00:36.252Z,12.30
2022-12-25T17:03:04.416Z,12.30
2022-12-25T17:05:35.444Z,12.40
2022-12-25T17:08:03.354Z,12.50
2022-12-25T17:10:32.386Z,12.60
2022-12-25T17:13:00.406Z,12.70
2022-12-25T17:15:30.520Z,12.70
2022-12-25T17:17:58.410Z,12.70
2022-12-25T17:20:26.343Z,12.60
2022-12-25T17:22:54.216Z,12.40
2022-12-25T17:25:22.141Z,12.40
2022-12-25T17:27:50.825Z,12.30
2022-12-25T17:30:18.823Z,12.30
2022-12-25T17:32:48.133Z,12.20
2022-12-25T17:35:17.819Z,12.10
2022-12-25T17:37:45.762Z,12.00
2022-12-25T17:40:16.799Z,12.00
2022-12-25T17:42:44.759Z,12.10
2022-12-25T17:45:13.052Z,12.00
2022-12-25T17:47:42.980Z,11.90
2022-12-25T17:50:12.355Z,11.70
2022-12-25T17:52:40.430Z,11.60
2022-12-25T17:55:09.319Z,11.40
2022-12-25T17:57:37.270Z,11.50
2022-12-25T18:00:06.472Z,11.80
2022-12-25T18:02:35.580Z,11.80
2022-12-25T18:05:03.680Z,11.70
2022-12-25T18:07:33.569Z,11.70
2022-12-25T18:10:01.553Z,11.70
2022-12-25T18:12:29.700Z,11.60
2022-12-25T18:14:57.680Z,11.50
2022-12-25T18:17:25.643Z,11.30
2022-12-25T18:19:53.737Z,11.20
2022-12-25T18:22:22.124Z,11.10
2022-12-25T18:24:51.476Z,11.10
2022-12-25T18:27:19.528Z,10.90
2022-12-25T18:29:47.925Z,11.00
2022-12-25T18:32:15.896Z,11.00
2022-12-25T18:34:43.894Z,11.00
2022-12-25T18:37:11.943Z,10.90
2022-12-25T18:39:39.900Z,11.00
2022-12-25T18:42:26.634Z,11.10
2022-12-25T18:44:54.679Z,11.20
2022-12-25T18:47:22.681Z,11.30
2022-12-25T18:49:52.880Z,11.20
2022-12-25T18:52:48.203Z,11.10
2022-12-25T18:55:10.686Z,11.00
2022-12-25T18:57:40.872Z,11.10
2022-12-25T19:00:09.994Z,11.30
2022-12-25T19:02:38.107Z,11.30
2022-12-25T19:05:06.787Z,11.30
2022-12-25T19:07:34.733Z,11.30
2022-12-25T19:10:02.987Z,11.40
2022-12-25T19:12:30.948Z,11.50
2022-12-25T19:15:00.655Z,11.50
2022-12-25T19:17:31.721Z,11.40
2022-12-25T19:19:59.941Z,11.40
2022-12-25T19:22:29.201Z,11.40
2022-12-25T19:24:57.398Z,11.50
2022-12-25T19:27:25.323Z,11.60
2022-12-25T19:29:53.279Z,11.60
2022-12-25T19:32:22.790Z,11.60
2022-12-25T19:34:50.717Z,11.70
2022-12-25T19:37:18.767Z,11.70
2022-12-25T19:39:47.031Z,11.70
2022-12-25T19:42:18.849Z,11.60
2022-12-25T19:44:46.751Z,11.70
2022-12-25T19:47:14.871Z,11.70
2022-12-25T19:49:46.527Z,11.70
2022-12-25T19:52:16.361Z,11.60
2022-12-25T19:54:44.367Z,11.40
2022-12-25T19:57:12.382Z,11.30
2022-12-25T19:59:40.599Z,11.10
2022-12-25T20:02:08.657Z,11.00
2022-12-25T20:04:36.844Z,11.00
2022-12-25T20:07:06.122Z,10.90
2022-12-25T20:09:34.052Z,10.90
2022-12-25T20:12:02.051Z,10.80
2022-12-25T20:14:30.039Z,10.70
2022-12-25T20:16:58.085Z,10.60
2022-12-25T20:19:26.039Z,10.60
2022-12-25T20:21:54.917Z,10.50
2022-12-25T20:24:24.716Z,10.60
2022-12-25T20:26:58.831Z,10.60
2022-12-25T20:29:27.259Z,10.60
2022-12-25T20:31:55.261Z,10.60
2022-12-25T20:34:23.258Z,10.60
2022-12-25T20:36:51.446Z,10.60
2022-12-25T20:39:19.477Z,10.60
2022-12-25T20:41:48.811Z,10.60
2022-12-25T20:44:16.816Z,10.60
2022-12-25T20:46:45.902Z,10.50
2022-12-25T20:49:14.007Z,10.50
2022-12-25T20:51:42.033Z,10.50
2022-12-25T20:54:11.006Z,10.60
2022-12-25T20:56:38.954Z,10.60
2022-12-25T20:59:09.988Z,10.70
